Sanborn, NY (14132)

6:15 PM EDT on September 27, 2016 (GMT -0400)
APRSWXNET | | Change Station

Elev 482 ft 43.18 °N, 78.84 °W | Updated 17 minutes ago

Partly Cloudy
Partly Cloudy
69 °F
Feels Like 69 °F
N
3
Wind Variable Wind from WSW
Gusts 9.0 mph

Today
High -- | Low -- °F
--% Chance of Precip.
Yesterday
High -- | Low -- °F
Precip. -- in
Pressure 29.80 in
Visibility 10.0 miles
Clouds Few 8000 ft
Few 25000 ft
Dew Point 47 °F
Humidity 46%
Rainfall in
Snow Depth Not available.
7:08 AM 7:02 PM
Waning Crescent, 9% visible
METAR KIAG 272153Z 24013KT 10SM FEW080 FEW250 21/05 A2980 RMK AO2 PK WND 23027/2102 SLP090 T02110050
Pressure 29.80 in
Visibility 10.0 miles
Clouds Few 8000 ft
Few 25000 ft
Dew Point 47 °F
Humidity 46%
Rainfall in
Snow Depth Not available.
7:08 AM 7:02 PM
Waning Crescent, 9% visible
METAR KIAG 272153Z 24013KT 10SM FEW080 FEW250 21/05 A2980 RMK AO2 PK WND 23027/2102 SLP090 T02110050

10-Day Weather Forecast

Almanac

Astronomy

Sep. 27, 2016 Rise Set
Actual Time
Civil Twilight
Nautical Twilight
Astronomical Twilight
Moon
Length of Visible Light
Length of Day
Tomorrow will be .
, % of the Moon is Illuminated

Today's Extremes

State Highs State Lows

Community

WunderPhotos

Upload Photos

1,942,168 photos uploaded!

WunderBlog® & News

Nearby

Air Quality

  Air Quality AQ Index Pollutant
Not available.

Snow Depth

Station Depth Elevation

Earthquake Activity

City Distance Mag. Time & Date
Minimum magnitude displayed is 2.5.

Coastal Water Temperatures

Place Temperature

Stations

Nearby Weather Stations

Station Location Temp. Windchill Dew Point Humidity Wind Precip. Elev Updated Type
                   

Watches & Warnings

There are currently no watches in effect.